Terminal Aerodrome Forecast
Issued by NWS

Home | Current Version | Previous Version | Text Only | Print | Product List | Glossary On
Versions: 1 2 3 4 5 6 7 8 9 10 11 12 13 14 15 16 17 18 19 20 21 22 23 24 25 26 27 28 29 30 31 32 33 34 35 36 37 38 39 40 41 42
000
FTUS41 KRNK 200621 AAA
TAFBCB
TAF AMD
KBCB 200621Z 2006/2106 00000KT 2SM BR SCT002
      TEMPO 2006/2008 1/4SM FG OVC001
     FM200800 26004KT 4SM BR SCT001 BKN200
      TEMPO 2009/2012 1 1/2SM BR BKN001
     FM201200 25010KT P6SM VCSH SCT045 BKN120
     FM201500 26013G22KT P6SM VCTS SCT040CB BKN060
     FM201800 25014G26KT P6SM SCT025 BKN090
     FM202000 26012G22KT P6SM VCTS BKN040CB
     FM210000 27010G20KT P6SM SCT025 BKN200=

USA.gov is the U.S. government's official web portal to all federal, state and local government web resources and services.